Gruver, Iowa
Current Conditions -  °F | °C
As of 11:16 PM on Sunday 21 Dec 2014 (Local Time) from KEST Reporting Station
Haze Haze  
Wind Chill: 27°   Ceiling: 300
Heat Index: 37°   Visibility: 1.5mi
Dew Point: 37°   Wind: 18mph
Humidity: 100%   Direction: 170°S
Pressure: 29.65"   Gusts: NA
Location:  43.39°N, 94.71°W
Report Text: KEST 220516Z AUTO 17016KT 1 1/2SM BR OVC003 03/03 A2965 RMK AO2 T00280028
Loading
Personal Weather Stations






























Interactive Weather Map New forecast layout! Learn more

10-Day Weather Forecast

Advertisements
Track Severe Weather on mobile